createdAt,value
2018-12-15T00:00:33.561Z,16.07
2018-12-15T00:03:03.038Z,16.87
2018-12-15T00:05:32.362Z,15.43
2018-12-15T00:08:01.597Z,21.03
2018-12-15T00:10:30.868Z,21.17
2018-12-15T00:13:00.133Z,19.10
2018-12-15T00:15:29.671Z,16.33
2018-12-15T00:17:59.134Z,17.87
2018-12-15T00:20:28.402Z,15.50
2018-12-15T00:22:57.926Z,16.67
2018-12-15T00:25:27.120Z,21.23
2018-12-15T00:27:56.383Z,17.80
2018-12-15T00:30:25.671Z,17.37
2018-12-15T00:32:55.749Z,16.03
2018-12-15T00:35:24.956Z,18.63
2018-12-15T00:37:54.674Z,18.60
2018-12-15T00:40:23.892Z,21.43
2018-12-15T00:42:53.174Z,15.07
2018-12-15T00:45:22.371Z,18.20
2018-12-15T00:47:51.966Z,18.50
2018-12-15T00:50:21.249Z,18.40
2018-12-15T00:52:50.461Z,19.07
2018-12-15T00:55:19.836Z,19.93
2018-12-15T00:57:49.084Z,20.23
2018-12-15T01:00:18.537Z,17.23
2018-12-15T01:02:47.802Z,17.00
2018-12-15T01:05:17.184Z,18.23
2018-12-15T01:07:46.427Z,18.10
2018-12-15T01:10:15.738Z,22.60
2018-12-15T01:12:45.146Z,21.73
2018-12-15T01:15:16.405Z,19.67
2018-12-15T01:17:45.700Z,18.23
2018-12-15T01:20:14.955Z,17.83
2018-12-15T01:22:44.222Z,17.27
2018-12-15T01:25:13.481Z,16.47
2018-12-15T01:27:43.043Z,17.00
2018-12-15T01:30:12.397Z,15.33
2018-12-15T01:32:41.663Z,14.90
2018-12-15T01:35:10.898Z,15.43
2018-12-15T01:37:40.145Z,17.83
2018-12-15T01:40:09.988Z,18.10
2018-12-15T01:42:39.938Z,18.23
2018-12-15T01:45:09.287Z,15.50
2018-12-15T01:47:38.495Z,17.70
2018-12-15T01:50:07.899Z,17.13
2018-12-15T01:52:37.206Z,19.07
2018-12-15T01:55:06.660Z,15.13
2018-12-15T01:57:35.929Z,20.77
2018-12-15T02:00:06.963Z,18.93
2018-12-15T02:02:36.384Z,19.80
2018-12-15T02:05:05.971Z,17.33
2018-12-15T02:07:35.229Z,18.23
2018-12-15T02:10:05.280Z,22.27
2018-12-15T02:12:35.364Z,18.93
2018-12-15T02:15:06.641Z,19.43
2018-12-15T02:17:35.971Z,15.67
2018-12-15T02:20:06.267Z,17.47
2018-12-15T02:22:35.463Z,19.40
2018-12-15T02:25:05.728Z,18.40
2018-12-15T02:27:35.054Z,18.33
2018-12-15T02:30:05.264Z,20.43
2018-12-15T02:32:34.524Z,16.60
2018-12-15T02:35:04.973Z,15.23
2018-12-15T02:37:36.310Z,16.27
2018-12-15T02:40:07.100Z,17.20
2018-12-15T02:42:36.316Z,16.67
2018-12-15T02:45:05.700Z,17.70
2018-12-15T02:47:41.135Z,14.13
2018-12-15T02:50:06.378Z,16.50
2018-12-15T02:52:35.912Z,19.43
2018-12-15T02:55:05.356Z,13.97
2018-12-15T02:57:34.582Z,17.63
2018-12-15T03:00:04.282Z,18.30
2018-12-15T03:02:33.510Z,15.77
2018-12-15T03:05:03.940Z,15.30
2018-12-15T03:07:33.167Z,14.40
2018-12-15T03:10:02.423Z,14.00
2018-12-15T03:12:31.971Z,17.63
2018-12-15T03:15:01.193Z,15.67
2018-12-15T03:17:30.445Z,13.70
2018-12-15T03:20:02.095Z,15.33
2018-12-15T03:22:31.492Z,13.10
2018-12-15T03:25:00.767Z,16.80
2018-12-15T03:27:30.021Z,13.60
2018-12-15T03:30:00.513Z,12.97
2018-12-15T03:32:29.773Z,14.03
2018-12-15T03:34:59.967Z,14.13
2018-12-15T03:37:29.278Z,14.60
2018-12-15T03:39:58.527Z,13.53
2018-12-15T03:42:28.246Z,14.97
2018-12-15T03:44:57.506Z,13.80
2018-12-15T03:47:26.998Z,18.30
2018-12-15T03:49:56.273Z,16.30
2018-12-15T03:52:25.478Z,19.40
2018-12-15T03:54:54.709Z,17.80
2018-12-15T03:57:23.921Z,15.10
2018-12-15T03:59:53.638Z,15.70
2018-12-15T04:02:23.008Z,14.03
2018-12-15T04:04:52.683Z,12.57
2018-12-15T04:07:21.972Z,17.00
2018-12-15T04:09:51.474Z,14.27
2018-12-15T04:12:20.793Z,17.10
2018-12-15T04:14:50.216Z,14.63
2018-12-15T04:17:19.589Z,16.10
2018-12-15T04:19:48.829Z,16.90
2018-12-15T04:22:20.106Z,15.93
2018-12-15T04:24:49.733Z,15.13
2018-12-15T04:27:18.960Z,16.13
2018-12-15T04:29:48.529Z,13.63
2018-12-15T04:32:17.778Z,16.30
2018-12-15T04:34:47.102Z,16.07
2018-12-15T04:37:16.374Z,18.37
2018-12-15T04:39:45.674Z,17.97
2018-12-15T04:42:15.528Z,12.93
2018-12-15T04:44:45.140Z,14.43
2018-12-15T04:47:14.673Z,12.90
2018-12-15T04:49:43.915Z,16.57
2018-12-15T04:52:13.320Z,18.13
2018-12-15T04:54:42.549Z,14.23
2018-12-15T04:57:11.796Z,18.97
2018-12-15T04:59:41.069Z,22.00
2018-12-15T05:02:10.254Z,20.20
2018-12-15T05:04:39.832Z,21.07
2018-12-15T05:07:09.060Z,22.80
2018-12-15T05:09:38.278Z,24.80
2018-12-15T05:12:07.636Z,19.03
2018-12-15T05:14:36.865Z,24.43
2018-12-15T05:17:06.822Z,33.47
2018-12-15T05:19:36.313Z,29.00
2018-12-15T05:22:05.749Z,23.70
2018-12-15T05:24:35.023Z,22.93
2018-12-15T05:27:04.940Z,22.73
2018-12-15T05:29:34.156Z,17.60
2018-12-15T05:32:03.667Z,24.30
2018-12-15T05:34:32.889Z,20.97
2018-12-15T05:37:02.144Z,19.87
2018-12-15T05:39:31.661Z,24.60
2018-12-15T05:42:00.896Z,23.80
2018-12-15T05:44:30.129Z,20.40
2018-12-15T05:46:59.385Z,22.47
2018-12-15T05:49:28.641Z,18.27
2018-12-15T05:51:57.855Z,29.77
2018-12-15T05:54:27.223Z,23.77
2018-12-15T05:56:57.704Z,22.97
2018-12-15T05:59:27.002Z,27.73
2018-12-15T06:01:56.620Z,22.13
2018-12-15T06:04:25.887Z,24.07
2018-12-15T06:06:55.152Z,21.17
2018-12-15T06:09:24.485Z,20.17
2018-12-15T06:11:53.791Z,19.90
2018-12-15T06:14:23.107Z,16.60
2018-12-15T06:16:52.433Z,18.77
2018-12-15T06:19:21.698Z,20.53
2018-12-15T06:21:50.957Z,20.37
2018-12-15T06:24:20.249Z,22.53
2018-12-15T06:26:49.505Z,20.40
2018-12-15T06:29:18.771Z,17.20
2018-12-15T06:31:48.183Z,20.03
2018-12-15T06:34:17.434Z,15.77
2018-12-15T06:36:46.679Z,14.57
2018-12-15T06:39:15.886Z,16.57
2018-12-15T06:41:45.092Z,17.37
2018-12-15T06:44:14.425Z,17.77
2018-12-15T06:46:43.878Z,18.13
2018-12-15T06:49:13.097Z,19.30
2018-12-15T06:51:42.528Z,18.93
2018-12-15T06:54:11.876Z,18.37
2018-12-15T06:56:41.121Z,19.63
2018-12-15T06:59:10.390Z,20.77
2018-12-15T07:01:39.699Z,24.00
2018-12-15T07:04:09.330Z,23.57
2018-12-15T07:06:38.578Z,22.33
2018-12-15T07:09:08.401Z,21.47
2018-12-15T07:11:37.657Z,24.23
2018-12-15T07:14:06.923Z,27.93
2018-12-15T07:16:36.247Z,21.30
2018-12-15T07:19:05.530Z,23.17
2018-12-15T07:21:34.752Z,21.33
2018-12-15T07:24:03.979Z,19.13
2018-12-15T07:26:33.240Z,20.93
2018-12-15T07:29:02.649Z,20.27
2018-12-15T07:31:31.923Z,17.27
2018-12-15T07:34:01.237Z,20.23
2018-12-15T07:36:30.511Z,18.90
2018-12-15T07:38:59.780Z,26.10
2018-12-15T07:41:29.078Z,19.97
2018-12-15T07:43:58.919Z,20.20
2018-12-15T07:46:28.249Z,20.43
2018-12-15T07:48:58.024Z,21.90
2018-12-15T07:51:27.254Z,23.17
2018-12-15T07:53:56.571Z,25.30
2018-12-15T07:56:32.504Z,25.50
2018-12-15T07:59:02.352Z,23.10
2018-12-15T08:01:31.564Z,22.77
2018-12-15T08:04:00.792Z,23.17
2018-12-15T08:06:30.071Z,20.27
2018-12-15T08:08:59.455Z,22.03
2018-12-15T08:11:33.808Z,23.80
2018-12-15T08:14:06.045Z,23.07
2018-12-15T08:16:35.416Z,25.20
2018-12-15T08:19:05.916Z,23.90
2018-12-15T08:21:35.391Z,30.57
2018-12-15T08:24:04.798Z,25.43
2018-12-15T08:26:34.080Z,29.33
2018-12-15T08:29:03.349Z,25.40
2018-12-15T08:31:32.686Z,23.80
2018-12-15T08:34:02.030Z,24.43
2018-12-15T08:36:31.330Z,26.80
2018-12-15T08:39:00.649Z,21.47
2018-12-15T08:41:30.002Z,21.57
2018-12-15T08:43:59.210Z,20.17
2018-12-15T08:46:28.982Z,19.07
2018-12-15T08:49:04.489Z,21.07
2018-12-15T08:51:29.678Z,18.13
2018-12-15T08:53:58.918Z,18.73
2018-12-15T08:56:29.250Z,22.73
2018-12-15T08:58:58.576Z,18.43
2018-12-15T09:01:27.836Z,19.87
2018-12-15T09:03:57.224Z,24.07
2018-12-15T09:06:26.532Z,20.93
2018-12-15T09:08:56.940Z,21.23
2018-12-15T09:11:26.194Z,22.93
2018-12-15T09:13:55.406Z,24.13
2018-12-15T09:16:26.639Z,20.47
2018-12-15T09:18:55.971Z,18.40
2018-12-15T09:21:25.239Z,20.67
2018-12-15T09:23:54.497Z,15.47
2018-12-15T09:26:23.827Z,15.00
2018-12-15T09:28:53.095Z,14.90
2018-12-15T09:31:22.328Z,16.37
2018-12-15T09:33:51.714Z,17.60
2018-12-15T09:36:21.029Z,20.63
2018-12-15T09:38:50.259Z,19.43
2018-12-15T09:41:19.771Z,18.63
2018-12-15T09:43:49.803Z,17.33
2018-12-15T09:46:19.061Z,16.77
2018-12-15T09:48:48.557Z,16.70
2018-12-15T09:51:18.117Z,20.60
2018-12-15T09:53:47.363Z,18.23
2018-12-15T09:56:16.830Z,18.70
2018-12-15T09:58:46.646Z,18.43
2018-12-15T10:01:15.993Z,19.47
2018-12-15T10:03:45.252Z,18.87
2018-12-15T10:06:14.492Z,19.77
2018-12-15T10:08:43.934Z,16.77
2018-12-15T10:11:14.238Z,21.07
2018-12-15T10:13:43.444Z,17.27
2018-12-15T10:16:13.717Z,16.87
2018-12-15T10:18:43.798Z,16.67
2018-12-15T10:21:13.061Z,17.27
2018-12-15T10:23:42.424Z,18.47
2018-12-15T10:26:11.656Z,16.27
2018-12-15T10:28:41.054Z,17.10
2018-12-15T10:31:15.819Z,16.37
2018-12-15T10:33:45.222Z,17.80
2018-12-15T10:36:14.499Z,21.57
2018-12-15T10:38:44.226Z,22.83
2018-12-15T10:41:14.195Z,16.97
2018-12-15T10:43:43.989Z,19.83
2018-12-15T10:46:13.377Z,17.53
2018-12-15T10:48:43.038Z,15.93
2018-12-15T10:51:12.495Z,17.77
2018-12-15T10:53:41.798Z,17.57
2018-12-15T10:56:11.570Z,16.10
2018-12-15T10:58:40.852Z,19.83
2018-12-15T11:01:15.368Z,18.27
2018-12-15T11:03:44.664Z,18.07
2018-12-15T11:06:14.056Z,18.70
2018-12-15T11:08:43.325Z,17.33
2018-12-15T11:11:12.642Z,14.53
2018-12-15T11:13:41.915Z,19.03
2018-12-15T11:16:11.237Z,15.77
2018-12-15T11:18:40.513Z,14.83
2018-12-15T11:21:09.792Z,16.07
2018-12-15T11:23:39.017Z,16.93
2018-12-15T11:27:37.701Z,13.53
2018-12-15T11:30:07.325Z,13.67
2018-12-15T11:32:37.304Z,14.80
2018-12-15T11:35:06.969Z,15.57
2018-12-15T11:37:36.292Z,18.70
2018-12-15T11:40:06.186Z,20.17
2018-12-15T11:42:35.691Z,20.30
2018-12-15T11:45:05.300Z,17.70
2018-12-15T11:47:34.530Z,18.80
2018-12-15T11:50:04.096Z,15.90
2018-12-15T11:52:34.497Z,18.13
2018-12-15T11:55:04.075Z,21.13
2018-12-15T11:57:33.675Z,20.40
2018-12-15T12:00:03.327Z,20.63
2018-12-15T12:02:32.940Z,20.97
2018-12-15T12:05:02.152Z,18.80
2018-12-15T12:07:31.412Z,17.67
2018-12-15T12:10:00.745Z,16.67
2018-12-15T12:12:30.023Z,18.60
2018-12-15T12:14:59.430Z,17.30
2018-12-15T12:17:28.636Z,18.67
2018-12-15T12:19:57.934Z,18.20
2018-12-15T12:22:27.253Z,21.00
2018-12-15T12:24:56.533Z,19.80
2018-12-15T12:27:25.792Z,20.70
2018-12-15T12:29:55.018Z,16.87
2018-12-15T12:32:24.412Z,31.97
2018-12-15T12:34:53.661Z,20.93
2018-12-15T12:37:22.926Z,23.67
2018-12-15T12:39:54.659Z,18.80
2018-12-15T12:42:25.145Z,18.17
2018-12-15T12:44:55.953Z,15.03
2018-12-15T12:47:25.272Z,19.30
2018-12-15T12:49:57.022Z,17.90
2018-12-15T12:52:26.492Z,17.63
2018-12-15T12:54:56.988Z,15.43
2018-12-15T12:57:26.331Z,17.13
2018-12-15T13:00:02.848Z,15.47
2018-12-15T13:02:32.319Z,16.60
2018-12-15T13:05:02.966Z,18.47
2018-12-15T13:07:32.461Z,21.03
2018-12-15T13:10:03.103Z,19.00
2018-12-15T13:12:33.279Z,16.27
2018-12-15T13:15:02.790Z,17.50
2018-12-15T13:17:32.242Z,16.93
2018-12-15T13:20:03.857Z,16.77
2018-12-15T13:22:33.175Z,16.40
2018-12-15T13:25:02.664Z,18.03
2018-12-15T13:27:32.795Z,18.40
2018-12-15T13:30:02.945Z,29.93
2018-12-15T13:32:34.802Z,24.50
2018-12-15T13:35:04.430Z,17.90
2018-12-15T13:37:35.182Z,18.33
2018-12-15T13:40:05.051Z,23.87
2018-12-15T13:42:34.485Z,19.73
2018-12-15T13:45:04.882Z,19.93
2018-12-15T13:47:34.174Z,20.87
2018-12-15T13:50:09.967Z,20.00
2018-12-15T13:52:35.235Z,16.33
2018-12-15T13:55:07.326Z,15.70
2018-12-15T13:57:40.794Z,16.30
2018-12-15T14:00:10.168Z,18.50
2018-12-15T14:02:40.292Z,20.37
2018-12-15T14:05:09.534Z,17.73
2018-12-15T14:07:38.790Z,18.37
2018-12-15T14:10:08.289Z,20.17
2018-12-15T14:12:37.671Z,19.30
2018-12-15T14:15:07.248Z,21.37
2018-12-15T14:17:36.778Z,21.33
2018-12-15T14:20:06.259Z,47.57
2018-12-15T14:22:35.499Z,32.97
2018-12-15T14:25:04.837Z,25.27
2018-12-15T14:27:34.188Z,19.77
2018-12-15T14:30:03.541Z,19.07
2018-12-15T14:32:32.756Z,25.27
2018-12-15T14:35:02.199Z,31.63
2018-12-15T14:37:31.558Z,25.27
2018-12-15T14:40:00.862Z,25.70
2018-12-15T14:42:30.111Z,18.93
2018-12-15T14:44:59.443Z,20.30
2018-12-15T14:47:28.696Z,22.27
2018-12-15T14:49:58.222Z,19.57
2018-12-15T14:52:27.436Z,19.10
2018-12-15T14:54:56.868Z,20.43
2018-12-15T14:57:26.387Z,17.97
2018-12-15T14:59:55.688Z,17.73
2018-12-15T15:02:24.997Z,19.70
2018-12-15T15:04:54.222Z,22.50
2018-12-15T15:07:23.821Z,25.60
2018-12-15T15:09:53.444Z,20.37
2018-12-15T15:12:23.549Z,19.63
2018-12-15T15:14:53.346Z,21.37
2018-12-15T15:17:23.597Z,20.13
2018-12-15T15:19:53.329Z,21.40
2018-12-15T15:22:22.973Z,19.93
2018-12-15T15:24:52.772Z,19.57
2018-12-15T15:27:22.267Z,23.30
2018-12-15T15:29:51.536Z,20.40
2018-12-15T15:32:20.791Z,26.27
2018-12-15T15:34:50.098Z,22.57
2018-12-15T15:37:19.448Z,21.53
2018-12-15T15:39:48.727Z,26.10
2018-12-15T15:42:18.695Z,23.83
2018-12-15T15:44:48.125Z,25.60
2018-12-15T15:47:18.167Z,27.20
2018-12-15T15:49:47.581Z,26.00
2018-12-15T15:52:16.975Z,24.57
2018-12-15T15:54:46.287Z,26.33
2018-12-15T15:57:16.382Z,26.73
2018-12-15T15:59:45.609Z,23.07
2018-12-15T16:02:15.427Z,25.47
2018-12-15T16:04:44.759Z,24.50
2018-12-15T16:07:14.597Z,23.20
2018-12-15T16:09:45.026Z,24.33
2018-12-15T16:12:14.709Z,39.20
2018-12-15T16:14:43.967Z,28.43
2018-12-15T16:17:13.453Z,26.87
2018-12-15T16:19:42.830Z,26.27
2018-12-15T16:22:12.211Z,32.33
2018-12-15T16:24:41.478Z,32.07
2018-12-15T16:27:10.867Z,44.00
2018-12-15T16:29:40.221Z,27.63
2018-12-15T16:32:09.524Z,42.83
2018-12-15T16:34:38.791Z,28.10
2018-12-15T16:37:08.126Z,36.17
2018-12-15T16:39:37.503Z,29.80
2018-12-15T16:42:06.768Z,27.00
2018-12-15T16:44:36.138Z,24.93
2018-12-15T16:47:05.655Z,29.73
2018-12-15T16:49:35.047Z,27.00
2018-12-15T16:52:05.066Z,27.07
2018-12-15T16:54:34.500Z,28.90
2018-12-15T16:57:04.342Z,35.80
2018-12-15T16:59:34.524Z,68.30
2018-12-15T17:02:03.786Z,54.00
2018-12-15T17:04:33.903Z,44.07
2018-12-15T17:07:05.071Z,26.07
2018-12-15T17:09:35.377Z,27.33
2018-12-15T17:12:04.689Z,30.40
2018-12-15T17:14:33.950Z,36.43
2018-12-15T17:17:03.311Z,25.67
2018-12-15T17:19:32.575Z,28.87
2018-12-15T17:22:01.816Z,24.93
2018-12-15T17:24:31.901Z,29.57
2018-12-15T17:27:01.144Z,26.90
2018-12-15T17:29:30.384Z,25.90
2018-12-15T17:31:59.653Z,27.57
2018-12-15T17:34:28.976Z,26.83
2018-12-15T17:36:58.416Z,21.93
2018-12-15T17:39:27.952Z,21.97
2018-12-15T17:41:57.236Z,25.60
2018-12-15T17:44:26.897Z,23.60
2018-12-15T17:46:56.227Z,20.20
2018-12-15T17:49:25.528Z,24.87
2018-12-15T17:51:57.134Z,23.17
2018-12-15T17:54:26.953Z,21.33
2018-12-15T17:56:56.367Z,22.30
2018-12-15T17:59:26.953Z,20.20
2018-12-15T18:01:56.355Z,25.83
2018-12-15T18:04:26.109Z,26.47
2018-12-15T18:06:55.846Z,28.43
2018-12-15T18:09:27.551Z,26.20
2018-12-15T18:11:58.411Z,25.70
2018-12-15T18:14:27.972Z,21.03
2018-12-15T18:16:57.483Z,24.37
2018-12-15T18:19:27.760Z,22.80
2018-12-15T18:21:57.174Z,22.03
2018-12-15T18:24:26.785Z,20.43
2018-12-15T18:26:56.088Z,19.97
2018-12-15T18:29:25.666Z,22.10
2018-12-15T18:31:54.943Z,23.03
2018-12-15T18:34:25.089Z,25.53
2018-12-15T18:36:54.649Z,20.53
2018-12-15T18:39:23.906Z,22.40
2018-12-15T18:41:53.137Z,21.40
2018-12-15T18:44:22.467Z,22.63
2018-12-15T18:46:51.792Z,23.53
2018-12-15T18:49:21.056Z,23.13
2018-12-15T18:51:50.377Z,23.07
2018-12-15T18:54:19.649Z,22.17
2018-12-15T18:56:49.118Z,20.50
2018-12-15T18:59:19.322Z,23.70
2018-12-15T19:01:49.200Z,26.77
2018-12-15T19:04:19.129Z,27.73
2018-12-15T19:06:48.394Z,27.87
2018-12-15T19:09:17.693Z,26.23
2018-12-15T19:11:47.541Z,20.70
2018-12-15T19:14:16.803Z,20.80
2018-12-15T19:16:46.173Z,19.90
2018-12-15T19:19:15.475Z,20.60
2018-12-15T19:21:44.781Z,20.80
2018-12-15T19:24:15.155Z,23.67
2018-12-15T19:26:44.401Z,34.93
2018-12-15T19:29:13.709Z,31.57
2018-12-15T19:34:33.360Z,21.10
2018-12-15T19:37:02.636Z,21.80
2018-12-15T19:39:32.846Z,23.27
2018-12-15T19:42:02.747Z,19.50
2018-12-15T19:44:32.134Z,22.03
2018-12-15T19:47:02.075Z,21.87
2018-12-15T19:49:31.767Z,18.93
2018-12-15T19:52:04.552Z,21.97
2018-12-15T19:54:33.863Z,23.20
2018-12-15T19:57:03.802Z,21.90
2018-12-15T19:59:36.361Z,25.77
2018-12-15T20:02:09.642Z,19.80
2018-12-15T20:04:43.733Z,23.97
2018-12-15T20:10:11.660Z,26.30
2018-12-15T20:12:41.668Z,22.20
2018-12-15T20:15:12.013Z,23.77
2018-12-15T20:17:41.960Z,23.43
2018-12-15T20:20:12.004Z,25.43
2018-12-15T20:22:42.078Z,28.73
2018-12-15T20:28:23.732Z,25.27
2018-12-15T20:30:53.038Z,36.17
2018-12-15T20:33:23.003Z,26.73
2018-12-15T20:35:52.824Z,24.80
2018-12-15T20:38:23.515Z,24.63
2018-12-15T20:40:53.217Z,31.57
2018-12-15T20:43:23.471Z,25.20
2018-12-15T20:45:55.484Z,24.23
2018-12-15T20:48:28.041Z,22.33
2018-12-15T20:51:01.829Z,20.10
2018-12-15T20:53:33.263Z,19.77
2018-12-15T20:56:03.800Z,20.93
2018-12-15T20:58:34.138Z,42.53
2018-12-15T21:01:04.843Z,58.43
2018-12-15T21:03:37.917Z,34.27
2018-12-15T21:06:07.674Z,32.63
2018-12-15T21:08:38.544Z,29.30
2018-12-15T21:11:14.098Z,22.70
2018-12-15T21:13:44.416Z,23.30
2018-12-15T21:16:13.905Z,24.67
2018-12-15T21:18:43.300Z,21.00
2018-12-15T21:21:12.623Z,21.63
2018-12-15T21:23:43.976Z,23.40
2018-12-15T21:26:13.266Z,25.17
2018-12-15T21:28:43.539Z,20.47
2018-12-15T21:31:12.775Z,19.83
2018-12-15T21:33:42.307Z,19.63
2018-12-15T21:36:11.829Z,19.17
2018-12-15T21:38:41.208Z,20.10
2018-12-15T21:41:11.063Z,22.00
2018-12-15T21:43:40.402Z,19.63
2018-12-15T21:46:09.680Z,18.53
2018-12-15T21:48:38.908Z,19.50
2018-12-15T21:51:08.150Z,21.23
2018-12-15T21:53:38.687Z,15.70
2018-12-15T21:56:09.112Z,18.47
2018-12-15T21:58:38.383Z,17.87
2018-12-15T22:01:07.632Z,17.93
2018-12-15T22:03:36.909Z,19.17
2018-12-15T22:06:06.219Z,17.83
2018-12-15T22:08:36.128Z,18.50
2018-12-15T22:11:05.451Z,19.27
2018-12-15T22:13:34.886Z,20.47
2018-12-15T22:16:04.134Z,17.23
2018-12-15T22:18:33.400Z,18.70
2018-12-15T22:21:02.658Z,18.30
2018-12-15T22:23:31.938Z,17.80
2018-12-15T22:26:01.172Z,27.50
2018-12-15T22:28:32.366Z,21.57
2018-12-15T22:31:01.645Z,18.03
2018-12-15T22:33:30.999Z,17.07
2018-12-15T22:36:00.524Z,18.83
2018-12-15T22:38:29.768Z,17.30
2018-12-15T22:41:00.422Z,15.43
2018-12-15T22:43:29.890Z,18.87
2018-12-15T22:46:00.689Z,16.67
2018-12-15T22:48:30.188Z,17.43
2018-12-15T22:51:00.472Z,18.27
2018-12-15T22:53:30.252Z,17.57
2018-12-15T22:55:59.802Z,16.67
2018-12-15T22:58:29.341Z,15.97
2018-12-15T23:01:08.060Z,18.37
2018-12-15T23:03:38.028Z,16.00
2018-12-15T23:06:07.330Z,14.70
2018-12-15T23:08:36.698Z,18.67
2018-12-15T23:11:06.398Z,16.43
2018-12-15T23:13:35.673Z,13.20
2018-12-15T23:16:05.027Z,19.37
2018-12-15T23:18:34.345Z,19.17
2018-12-15T23:21:04.685Z,16.80
2018-12-15T23:23:33.992Z,16.13
2018-12-15T23:26:03.284Z,21.27
2018-12-15T23:28:32.553Z,17.33
2018-12-15T23:31:01.986Z,14.67
2018-12-15T23:33:31.376Z,17.77
2018-12-15T23:36:00.598Z,18.27
2018-12-15T23:38:30.076Z,15.43
2018-12-15T23:40:59.306Z,16.13
2018-12-15T23:43:28.550Z,18.70
2018-12-15T23:45:57.946Z,16.10
2018-12-15T23:48:27.267Z,15.87
2018-12-15T23:50:56.597Z,19.10
2018-12-15T23:53:25.971Z,16.77
2018-12-15T23:55:55.258Z,20.87
2018-12-15T23:58:24.536Z,19.67
